sensor_id;sensor_type;location;lat;lon;timestamp;P1;durP1;ratioP1;P2;durP2;ratioP2
45107;SDS011;30869;51.188;6.556;2022-11-15T00:00:46;22.48;;;11.88;;
45107;SDS011;30869;51.188;6.556;2022-11-15T00:03:20;16.70;;;10.00;;
45107;SDS011;30869;51.188;6.556;2022-11-15T00:05:52;21.38;;;12.13;;
45107;SDS011;30869;51.188;6.556;2022-11-15T00:08:18;14.60;;;9.18;;
45107;SDS011;30869;51.188;6.556;2022-11-15T00:10:57;18.38;;;10.40;;
45107;SDS011;30869;51.188;6.556;2022-11-15T00:13:24;14.82;;;9.88;;
45107;SDS011;30869;51.188;6.556;2022-11-15T00:15:50;20.45;;;10.30;;
45107;SDS011;30869;51.188;6.556;2022-11-15T00:18:18;18.40;;;8.88;;
45107;SDS011;30869;51.188;6.556;2022-11-15T00:20:44;13.27;;;8.00;;
45107;SDS011;30869;51.188;6.556;2022-11-15T00:23:10;17.95;;;10.05;;
45107;SDS011;30869;51.188;6.556;2022-11-15T00:25:36;16.35;;;9.73;;
45107;SDS011;30869;51.188;6.556;2022-11-15T00:28:02;17.98;;;9.68;;
45107;SDS011;30869;51.188;6.556;2022-11-15T00:30:28;19.10;;;12.60;;
45107;SDS011;30869;51.188;6.556;2022-11-15T00:32:55;25.08;;;13.57;;
45107;SDS011;30869;51.188;6.556;2022-11-15T00:35:21;25.80;;;13.32;;
45107;SDS011;30869;51.188;6.556;2022-11-15T00:37:47;17.73;;;9.65;;
45107;SDS011;30869;51.188;6.556;2022-11-15T00:40:14;24.33;;;11.75;;
45107;SDS011;30869;51.188;6.556;2022-11-15T00:42:40;20.10;;;10.85;;
45107;SDS011;30869;51.188;6.556;2022-11-15T00:45:06;16.73;;;11.15;;
45107;SDS011;30869;51.188;6.556;2022-11-15T00:47:33;19.70;;;10.82;;
45107;SDS011;30869;51.188;6.556;2022-11-15T00:49:59;23.17;;;13.13;;
45107;SDS011;30869;51.188;6.556;2022-11-15T00:52:24;22.75;;;11.32;;
45107;SDS011;30869;51.188;6.556;2022-11-15T00:54:50;30.60;;;14.25;;
45107;SDS011;30869;51.188;6.556;2022-11-15T00:57:16;26.20;;;14.07;;
45107;SDS011;30869;51.188;6.556;2022-11-15T00:59:43;18.63;;;11.70;;
45107;SDS011;30869;51.188;6.556;2022-11-15T01:02:11;25.52;;;11.75;;
45107;SDS011;30869;51.188;6.556;2022-11-15T01:04:37;27.73;;;13.63;;
45107;SDS011;30869;51.188;6.556;2022-11-15T01:07:04;20.63;;;10.20;;
45107;SDS011;30869;51.188;6.556;2022-11-15T01:09:32;21.92;;;12.05;;
45107;SDS011;30869;51.188;6.556;2022-11-15T01:11:58;23.73;;;12.43;;
45107;SDS011;30869;51.188;6.556;2022-11-15T01:14:23;25.15;;;12.32;;
45107;SDS011;30869;51.188;6.556;2022-11-15T01:16:49;28.42;;;12.98;;
45107;SDS011;30869;51.188;6.556;2022-11-15T01:19:18;26.90;;;13.05;;
45107;SDS011;30869;51.188;6.556;2022-11-15T01:21:43;25.27;;;12.38;;
45107;SDS011;30869;51.188;6.556;2022-11-15T01:24:12;27.42;;;14.38;;
45107;SDS011;30869;51.188;6.556;2022-11-15T01:26:41;23.98;;;13.45;;
45107;SDS011;30869;51.188;6.556;2022-11-15T01:29:06;20.92;;;13.45;;
45107;SDS011;30869;51.188;6.556;2022-11-15T01:31:33;33.47;;;15.70;;
45107;SDS011;30869;51.188;6.556;2022-11-15T01:33:58;36.97;;;16.00;;
45107;SDS011;30869;51.188;6.556;2022-11-15T01:36:24;24.00;;;14.13;;
45107;SDS011;30869;51.188;6.556;2022-11-15T01:38:54;32.55;;;16.33;;
45107;SDS011;30869;51.188;6.556;2022-11-15T01:41:22;36.63;;;17.33;;
45107;SDS011;30869;51.188;6.556;2022-11-15T01:43:54;32.38;;;15.65;;
45107;SDS011;30869;51.188;6.556;2022-11-15T01:46:33;27.88;;;14.50;;
45107;SDS011;30869;51.188;6.556;2022-11-15T01:49:03;23.20;;;12.57;;
45107;SDS011;30869;51.188;6.556;2022-11-15T01:51:36;26.40;;;15.98;;
45107;SDS011;30869;51.188;6.556;2022-11-15T01:54:04;32.97;;;14.32;;
45107;SDS011;30869;51.188;6.556;2022-11-15T01:56:36;24.77;;;15.27;;
45107;SDS011;30869;51.188;6.556;2022-11-15T01:59:08;30.92;;;17.65;;
45107;SDS011;30869;51.188;6.556;2022-11-15T02:01:35;22.60;;;12.82;;
45107;SDS011;30869;51.188;6.556;2022-11-15T02:04:04;23.20;;;11.10;;
45107;SDS011;30869;51.188;6.556;2022-11-15T02:06:37;31.48;;;13.20;;
45107;SDS011;30869;51.188;6.556;2022-11-15T02:09:04;25.63;;;13.63;;
45107;SDS011;30869;51.188;6.556;2022-11-15T02:11:30;18.80;;;10.50;;
45107;SDS011;30869;51.188;6.556;2022-11-15T02:13:56;29.50;;;12.60;;
45107;SDS011;30869;51.188;6.556;2022-11-15T02:22:07;27.10;;;12.70;;
45107;SDS011;30869;51.188;6.556;2022-11-15T02:25:00;19.85;;;11.98;;
45107;SDS011;30869;51.188;6.556;2022-11-15T02:27:48;28.30;;;13.23;;
45107;SDS011;30869;51.188;6.556;2022-11-15T02:31:00;27.50;;;14.15;;
45107;SDS011;30869;51.188;6.556;2022-11-15T02:33:35;28.75;;;16.02;;
45107;SDS011;30869;51.188;6.556;2022-11-15T02:39:25;30.35;;;15.00;;
45107;SDS011;30869;51.188;6.556;2022-11-15T02:42:04;26.73;;;15.13;;
45107;SDS011;30869;51.188;6.556;2022-11-15T02:44:56;28.67;;;16.35;;
45107;SDS011;30869;51.188;6.556;2022-11-15T02:47:27;25.67;;;13.15;;
45107;SDS011;30869;51.188;6.556;2022-11-15T02:49:57;32.70;;;14.35;;
45107;SDS011;30869;51.188;6.556;2022-11-15T02:52:27;23.23;;;13.68;;
45107;SDS011;30869;51.188;6.556;2022-11-15T02:54:56;22.67;;;13.00;;
45107;SDS011;30869;51.188;6.556;2022-11-15T03:00:17;21.25;;;12.25;;
45107;SDS011;30869;51.188;6.556;2022-11-15T03:05:41;29.13;;;12.13;;
45107;SDS011;30869;51.188;6.556;2022-11-15T03:11:14;21.38;;;10.20;;
45107;SDS011;30869;51.188;6.556;2022-11-15T03:18:55;28.50;;;14.38;;
45107;SDS011;30869;51.188;6.556;2022-11-15T03:21:24;31.58;;;15.65;;
45107;SDS011;30869;51.188;6.556;2022-11-15T03:23:55;29.05;;;15.85;;
45107;SDS011;30869;51.188;6.556;2022-11-15T03:26:27;34.17;;;16.08;;
45107;SDS011;30869;51.188;6.556;2022-11-15T03:29:24;16.00;;;10.35;;
45107;SDS011;30869;51.188;6.556;2022-11-15T03:31:59;37.67;;;16.40;;
45107;SDS011;30869;51.188;6.556;2022-11-15T03:34:31;26.17;;;14.25;;
45107;SDS011;30869;51.188;6.556;2022-11-15T03:37:03;26.02;;;14.30;;
45107;SDS011;30869;51.188;6.556;2022-11-15T03:39:47;35.25;;;17.75;;
45107;SDS011;30869;51.188;6.556;2022-11-15T03:42:22;29.50;;;17.50;;
45107;SDS011;30869;51.188;6.556;2022-11-15T03:45:12;36.22;;;16.33;;
45107;SDS011;30869;51.188;6.556;2022-11-15T03:50:38;32.83;;;16.60;;
45107;SDS011;30869;51.188;6.556;2022-11-15T03:53:25;25.02;;;13.80;;
45107;SDS011;30869;51.188;6.556;2022-11-15T03:56:13;33.00;;;16.58;;
45107;SDS011;30869;51.188;6.556;2022-11-15T03:58:49;39.08;;;18.70;;
45107;SDS011;30869;51.188;6.556;2022-11-15T04:01:16;38.03;;;18.98;;
45107;SDS011;30869;51.188;6.556;2022-11-15T04:03:42;25.52;;;13.38;;
45107;SDS011;30869;51.188;6.556;2022-11-15T04:06:08;28.83;;;15.23;;
45107;SDS011;30869;51.188;6.556;2022-11-15T04:08:37;21.77;;;13.00;;
45107;SDS011;30869;51.188;6.556;2022-11-15T04:11:03;28.17;;;14.07;;
45107;SDS011;30869;51.188;6.556;2022-11-15T04:13:29;21.25;;;12.18;;
45107;SDS011;30869;51.188;6.556;2022-11-15T04:15:55;15.95;;;9.75;;
45107;SDS011;30869;51.188;6.556;2022-11-15T04:18:21;19.67;;;11.38;;
45107;SDS011;30869;51.188;6.556;2022-11-15T04:20:47;21.75;;;11.27;;
45107;SDS011;30869;51.188;6.556;2022-11-15T04:23:38;23.60;;;12.43;;
45107;SDS011;30869;51.188;6.556;2022-11-15T04:26:27;24.17;;;12.57;;
45107;SDS011;30869;51.188;6.556;2022-11-15T04:28:53;25.42;;;12.25;;
45107;SDS011;30869;51.188;6.556;2022-11-15T04:31:43;21.30;;;12.98;;
45107;SDS011;30869;51.188;6.556;2022-11-15T04:34:09;24.80;;;12.90;;
45107;SDS011;30869;51.188;6.556;2022-11-15T04:36:38;27.02;;;13.73;;
45107;SDS011;30869;51.188;6.556;2022-11-15T04:39:22;23.40;;;13.07;;
45107;SDS011;30869;51.188;6.556;2022-11-15T04:41:48;13.43;;;8.63;;
45107;SDS011;30869;51.188;6.556;2022-11-15T04:44:14;13.15;;;8.35;;
45107;SDS011;30869;51.188;6.556;2022-11-15T04:46:40;28.60;;;11.50;;
45107;SDS011;30869;51.188;6.556;2022-11-15T04:49:06;18.27;;;9.65;;
45107;SDS011;30869;51.188;6.556;2022-11-15T04:51:32;27.80;;;14.57;;
45107;SDS011;30869;51.188;6.556;2022-11-15T04:53:58;23.67;;;13.77;;
45107;SDS011;30869;51.188;6.556;2022-11-15T04:56:24;17.55;;;9.68;;
45107;SDS011;30869;51.188;6.556;2022-11-15T04:58:50;24.35;;;13.23;;
45107;SDS011;30869;51.188;6.556;2022-11-15T05:01:19;16.38;;;10.43;;
45107;SDS011;30869;51.188;6.556;2022-11-15T05:03:44;11.48;;;7.30;;
45107;SDS011;30869;51.188;6.556;2022-11-15T05:06:30;19.87;;;8.63;;
45107;SDS011;30869;51.188;6.556;2022-11-15T05:08:57;31.95;;;12.98;;
45107;SDS011;30869;51.188;6.556;2022-11-15T05:11:23;15.82;;;9.75;;
45107;SDS011;30869;51.188;6.556;2022-11-15T05:13:49;14.98;;;9.32;;
45107;SDS011;30869;51.188;6.556;2022-11-15T05:16:15;20.92;;;11.75;;
45107;SDS011;30869;51.188;6.556;2022-11-15T05:18:42;23.73;;;12.20;;
45107;SDS011;30869;51.188;6.556;2022-11-15T05:21:10;25.92;;;14.32;;
45107;SDS011;30869;51.188;6.556;2022-11-15T05:23:38;21.00;;;12.38;;
45107;SDS011;30869;51.188;6.556;2022-11-15T05:26:05;23.05;;;11.80;;
45107;SDS011;30869;51.188;6.556;2022-11-15T05:28:32;9.38;;;6.57;;
45107;SDS011;30869;51.188;6.556;2022-11-15T05:31:02;23.38;;;11.60;;
45107;SDS011;30869;51.188;6.556;2022-11-15T05:37:07;19.73;;;11.18;;
45107;SDS011;30869;51.188;6.556;2022-11-15T05:40:35;17.23;;;9.65;;
45107;SDS011;30869;51.188;6.556;2022-11-15T05:43:38;12.98;;;8.00;;
45107;SDS011;30869;51.188;6.556;2022-11-15T05:46:06;9.35;;;7.38;;
45107;SDS011;30869;51.188;6.556;2022-11-15T05:48:34;8.40;;;4.82;;
45107;SDS011;30869;51.188;6.556;2022-11-15T05:51:01;7.07;;;5.55;;
45107;SDS011;30869;51.188;6.556;2022-11-15T05:53:29;15.90;;;9.95;;
45107;SDS011;30869;51.188;6.556;2022-11-15T05:55:55;22.08;;;11.32;;
45107;SDS011;30869;51.188;6.556;2022-11-15T05:58:21;13.00;;;9.18;;
45107;SDS011;30869;51.188;6.556;2022-11-15T06:00:47;10.93;;;7.78;;
45107;SDS011;30869;51.188;6.556;2022-11-15T06:03:13;12.32;;;7.60;;
45107;SDS011;30869;51.188;6.556;2022-11-15T06:05:39;6.50;;;4.65;;
45107;SDS011;30869;51.188;6.556;2022-11-15T06:08:05;19.23;;;7.95;;
45107;SDS011;30869;51.188;6.556;2022-11-15T06:10:30;15.23;;;9.15;;
45107;SDS011;30869;51.188;6.556;2022-11-15T06:13:01;14.35;;;7.93;;
45107;SDS011;30869;51.188;6.556;2022-11-15T06:15:29;11.13;;;7.18;;
45107;SDS011;30869;51.188;6.556;2022-11-15T06:17:58;9.82;;;6.28;;
45107;SDS011;30869;51.188;6.556;2022-11-15T06:20:24;19.35;;;7.40;;
45107;SDS011;30869;51.188;6.556;2022-11-15T06:22:55;13.98;;;7.63;;
45107;SDS011;30869;51.188;6.556;2022-11-15T06:25:25;13.93;;;7.25;;
45107;SDS011;30869;51.188;6.556;2022-11-15T06:27:55;21.48;;;9.13;;
45107;SDS011;30869;51.188;6.556;2022-11-15T06:30:23;12.15;;;7.28;;
45107;SDS011;30869;51.188;6.556;2022-11-15T06:32:50;9.50;;;6.05;;
45107;SDS011;30869;51.188;6.556;2022-11-15T06:35:16;15.73;;;7.22;;
45107;SDS011;30869;51.188;6.556;2022-11-15T06:37:42;9.35;;;6.30;;
45107;SDS011;30869;51.188;6.556;2022-11-15T06:40:08;7.72;;;6.25;;
45107;SDS011;30869;51.188;6.556;2022-11-15T06:42:34;8.50;;;4.78;;
45107;SDS011;30869;51.188;6.556;2022-11-15T06:45:00;5.97;;;4.90;;
45107;SDS011;30869;51.188;6.556;2022-11-15T06:47:26;8.35;;;5.10;;
45107;SDS011;30869;51.188;6.556;2022-11-15T06:49:52;6.00;;;5.03;;
45107;SDS011;30869;51.188;6.556;2022-11-15T06:52:18;7.40;;;5.68;;
45107;SDS011;30869;51.188;6.556;2022-11-15T06:54:44;6.95;;;2.80;;
45107;SDS011;30869;51.188;6.556;2022-11-15T06:57:10;8.35;;;2.80;;
45107;SDS011;30869;51.188;6.556;2022-11-15T06:59:36;6.22;;;5.15;;
45107;SDS011;30869;51.188;6.556;2022-11-15T07:02:02;3.97;;;3.08;;
45107;SDS011;30869;51.188;6.556;2022-11-15T07:04:28;4.55;;;3.08;;
45107;SDS011;30869;51.188;6.556;2022-11-15T07:06:54;6.80;;;3.15;;
45107;SDS011;30869;51.188;6.556;2022-11-15T07:09:19;5.88;;;4.05;;
45107;SDS011;30869;51.188;6.556;2022-11-15T07:11:45;5.47;;;2.83;;
45107;SDS011;30869;51.188;6.556;2022-11-15T07:14:11;6.70;;;3.25;;
45107;SDS011;30869;51.188;6.556;2022-11-15T07:16:37;5.25;;;3.63;;
45107;SDS011;30869;51.188;6.556;2022-11-15T07:19:03;6.40;;;3.17;;
45107;SDS011;30869;51.188;6.556;2022-11-15T07:21:28;6.50;;;3.17;;
45107;SDS011;30869;51.188;6.556;2022-11-15T07:23:54;5.20;;;4.07;;
45107;SDS011;30869;51.188;6.556;2022-11-15T07:26:20;5.25;;;3.30;;
45107;SDS011;30869;51.188;6.556;2022-11-15T07:28:46;5.05;;;3.47;;
45107;SDS011;30869;51.188;6.556;2022-11-15T07:31:11;3.38;;;2.13;;
45107;SDS011;30869;51.188;6.556;2022-11-15T07:33:37;8.07;;;4.22;;
45107;SDS011;30869;51.188;6.556;2022-11-15T07:36:04;4.15;;;3.60;;
45107;SDS011;30869;51.188;6.556;2022-11-15T07:38:31;4.60;;;3.38;;
45107;SDS011;30869;51.188;6.556;2022-11-15T07:40:58;4.13;;;3.40;;
45107;SDS011;30869;51.188;6.556;2022-11-15T07:43:25;7.10;;;3.90;;
45107;SDS011;30869;51.188;6.556;2022-11-15T07:45:54;4.90;;;3.88;;
45107;SDS011;30869;51.188;6.556;2022-11-15T07:48:21;5.72;;;3.30;;
45107;SDS011;30869;51.188;6.556;2022-11-15T07:50:47;3.83;;;2.58;;
45107;SDS011;30869;51.188;6.556;2022-11-15T07:53:12;6.38;;;3.55;;
45107;SDS011;30869;51.188;6.556;2022-11-15T07:55:39;3.42;;;3.05;;
45107;SDS011;30869;51.188;6.556;2022-11-15T07:58:07;3.13;;;2.40;;
45107;SDS011;30869;51.188;6.556;2022-11-15T08:00:34;3.22;;;2.47;;
45107;SDS011;30869;51.188;6.556;2022-11-15T08:03:01;3.38;;;2.35;;
45107;SDS011;30869;51.188;6.556;2022-11-15T08:05:38;1.33;;;0.90;;
45107;SDS011;30869;51.188;6.556;2022-11-15T08:08:04;2.92;;;2.60;;
45107;SDS011;30869;51.188;6.556;2022-11-15T08:10:31;4.68;;;3.00;;
45107;SDS011;30869;51.188;6.556;2022-11-15T08:13:03;2.22;;;2.03;;
45107;SDS011;30869;51.188;6.556;2022-11-15T08:15:31;3.75;;;2.72;;
45107;SDS011;30869;51.188;6.556;2022-11-15T08:17:58;5.80;;;2.35;;
45107;SDS011;30869;51.188;6.556;2022-11-15T08:20:26;8.02;;;1.77;;
45107;SDS011;30869;51.188;6.556;2022-11-15T08:22:56;1.17;;;1.08;;
45107;SDS011;30869;51.188;6.556;2022-11-15T08:25:24;3.22;;;2.75;;
45107;SDS011;30869;51.188;6.556;2022-11-15T08:27:54;2.50;;;0.90;;
45107;SDS011;30869;51.188;6.556;2022-11-15T08:30:21;6.05;;;3.08;;
45107;SDS011;30869;51.188;6.556;2022-11-15T08:32:48;6.28;;;1.92;;
45107;SDS011;30869;51.188;6.556;2022-11-15T08:35:14;3.70;;;3.30;;
45107;SDS011;30869;51.188;6.556;2022-11-15T08:37:40;6.47;;;1.60;;
45107;SDS011;30869;51.188;6.556;2022-11-15T08:40:06;5.15;;;3.33;;
45107;SDS011;30869;51.188;6.556;2022-11-15T08:42:32;7.45;;;1.92;;
45107;SDS011;30869;51.188;6.556;2022-11-15T08:44:58;3.65;;;2.70;;
45107;SDS011;30869;51.188;6.556;2022-11-15T08:47:24;15.43;;;2.58;;
45107;SDS011;30869;51.188;6.556;2022-11-15T08:49:50;6.30;;;3.75;;
45107;SDS011;30869;51.188;6.556;2022-11-15T08:52:16;3.28;;;2.88;;
45107;SDS011;30869;51.188;6.556;2022-11-15T08:54:42;3.55;;;2.55;;
45107;SDS011;30869;51.188;6.556;2022-11-15T08:57:07;5.00;;;2.85;;
45107;SDS011;30869;51.188;6.556;2022-11-15T08:59:34;5.15;;;2.47;;
45107;SDS011;30869;51.188;6.556;2022-11-15T09:02:00;3.67;;;3.28;;
45107;SDS011;30869;51.188;6.556;2022-11-15T09:04:26;5.28;;;2.65;;
45107;SDS011;30869;51.188;6.556;2022-11-15T09:06:51;3.78;;;2.03;;
45107;SDS011;30869;51.188;6.556;2022-11-15T09:09:17;4.45;;;2.97;;
45107;SDS011;30869;51.188;6.556;2022-11-15T09:11:43;4.28;;;2.60;;
45107;SDS011;30869;51.188;6.556;2022-11-15T09:14:10;5.93;;;2.83;;
45107;SDS011;30869;51.188;6.556;2022-11-15T09:16:37;5.32;;;2.47;;
45107;SDS011;30869;51.188;6.556;2022-11-15T09:19:03;5.70;;;2.60;;
45107;SDS011;30869;51.188;6.556;2022-11-15T09:21:31;8.02;;;3.10;;
45107;SDS011;30869;51.188;6.556;2022-11-15T09:23:57;3.97;;;2.40;;
45107;SDS011;30869;51.188;6.556;2022-11-15T09:26:23;5.95;;;2.40;;
45107;SDS011;30869;51.188;6.556;2022-11-15T09:28:49;4.00;;;2.03;;
45107;SDS011;30869;51.188;6.556;2022-11-15T09:31:15;3.67;;;1.90;;
45107;SDS011;30869;51.188;6.556;2022-11-15T09:33:43;7.38;;;2.05;;
45107;SDS011;30869;51.188;6.556;2022-11-15T09:36:10;3.95;;;2.40;;
45107;SDS011;30869;51.188;6.556;2022-11-15T09:38:36;7.30;;;1.65;;
45107;SDS011;30869;51.188;6.556;2022-11-15T09:41:16;5.10;;;1.77;;
45107;SDS011;30869;51.188;6.556;2022-11-15T09:47:00;5.35;;;2.10;;
45107;SDS011;30869;51.188;6.556;2022-11-15T09:49:30;5.80;;;1.60;;
45107;SDS011;30869;51.188;6.556;2022-11-15T09:51:57;3.33;;;1.55;;
45107;SDS011;30869;51.188;6.556;2022-11-15T09:57:14;2.20;;;1.70;;
45107;SDS011;30869;51.188;6.556;2022-11-15T10:02:40;3.75;;;1.60;;
45107;SDS011;30869;51.188;6.556;2022-11-15T10:05:10;3.17;;;1.67;;
45107;SDS011;30869;51.188;6.556;2022-11-15T10:08:03;4.07;;;1.15;;
45107;SDS011;30869;51.188;6.556;2022-11-15T10:10:44;3.13;;;1.50;;
45107;SDS011;30869;51.188;6.556;2022-11-15T10:13:15;3.83;;;1.42;;
45107;SDS011;30869;51.188;6.556;2022-11-15T10:15:47;2.33;;;1.30;;
45107;SDS011;30869;51.188;6.556;2022-11-15T10:18:36;8.30;;;1.80;;
45107;SDS011;30869;51.188;6.556;2022-11-15T10:21:20;5.15;;;1.33;;
45107;SDS011;30869;51.188;6.556;2022-11-15T10:23:54;1.75;;;1.48;;
45107;SDS011;30869;51.188;6.556;2022-11-15T10:26:20;2.45;;;1.25;;
45107;SDS011;30869;51.188;6.556;2022-11-15T10:28:48;6.65;;;1.02;;
45107;SDS011;30869;51.188;6.556;2022-11-15T10:31:27;1.27;;;1.08;;
45107;SDS011;30869;51.188;6.556;2022-11-15T10:34:13;1.98;;;1.17;;
45107;SDS011;30869;51.188;6.556;2022-11-15T10:36:53;2.83;;;1.23;;
45107;SDS011;30869;51.188;6.556;2022-11-15T10:39:21;6.00;;;1.20;;
45107;SDS011;30869;51.188;6.556;2022-11-15T10:41:47;4.50;;;1.95;;
45107;SDS011;30869;51.188;6.556;2022-11-15T10:46:42;2.15;;;1.70;;
45107;SDS011;30869;51.188;6.556;2022-11-15T10:49:17;5.70;;;1.00;;
45107;SDS011;30869;51.188;6.556;2022-11-15T10:51:46;3.88;;;1.33;;
45107;SDS011;30869;51.188;6.556;2022-11-15T10:57:00;1.45;;;1.25;;
45107;SDS011;30869;51.188;6.556;2022-11-15T10:59:35;3.13;;;1.13;;
45107;SDS011;30869;51.188;6.556;2022-11-15T11:02:02;10.63;;;2.13;;
45107;SDS011;30869;51.188;6.556;2022-11-15T11:04:51;4.53;;;1.85;;
45107;SDS011;30869;51.188;6.556;2022-11-15T11:07:21;2.35;;;1.33;;
45107;SDS011;30869;51.188;6.556;2022-11-15T11:09:59;1.10;;;1.00;;
45107;SDS011;30869;51.188;6.556;2022-11-15T11:12:31;4.63;;;1.65;;
45107;SDS011;30869;51.188;6.556;2022-11-15T11:15:05;5.57;;;1.15;;
45107;SDS011;30869;51.188;6.556;2022-11-15T11:20:22;7.97;;;1.80;;
45107;SDS011;30869;51.188;6.556;2022-11-15T11:23:21;1.25;;;1.08;;
45107;SDS011;30869;51.188;6.556;2022-11-15T11:29:02;2.17;;;1.58;;
45107;SDS011;30869;51.188;6.556;2022-11-15T11:42:42;5.30;;;1.33;;
45107;SDS011;30869;51.188;6.556;2022-11-15T11:50:30;5.28;;;1.38;;
45107;SDS011;30869;51.188;6.556;2022-11-15T11:52:59;2.85;;;0.93;;
45107;SDS011;30869;51.188;6.556;2022-11-15T11:58:19;2.95;;;0.95;;
45107;SDS011;30869;51.188;6.556;2022-11-15T12:01:07;4.20;;;1.30;;
45107;SDS011;30869;51.188;6.556;2022-11-15T12:03:40;1.10;;;1.00;;
45107;SDS011;30869;51.188;6.556;2022-11-15T12:06:27;1.77;;;0.73;;
45107;SDS011;30869;51.188;6.556;2022-11-15T12:09:33;4.65;;;1.20;;
45107;SDS011;30869;51.188;6.556;2022-11-15T12:14:34;4.35;;;1.65;;
45107;SDS011;30869;51.188;6.556;2022-11-15T12:17:24;3.25;;;1.35;;
45107;SDS011;30869;51.188;6.556;2022-11-15T12:19:52;3.85;;;1.05;;
45107;SDS011;30869;51.188;6.556;2022-11-15T12:25:03;5.22;;;1.23;;
45107;SDS011;30869;51.188;6.556;2022-11-15T12:28:06;4.28;;;0.82;;
45107;SDS011;30869;51.188;6.556;2022-11-15T12:30:52;3.58;;;1.15;;
45107;SDS011;30869;51.188;6.556;2022-11-15T12:36:09;3.05;;;1.00;;
45107;SDS011;30869;51.188;6.556;2022-11-15T12:38:58;3.40;;;0.93;;
45107;SDS011;30869;51.188;6.556;2022-11-15T12:41:26;4.75;;;1.20;;
45107;SDS011;30869;51.188;6.556;2022-11-15T12:43:57;2.40;;;0.82;;
45107;SDS011;30869;51.188;6.556;2022-11-15T12:49:00;2.92;;;1.15;;
45107;SDS011;30869;51.188;6.556;2022-11-15T13:02:27;2.95;;;1.73;;
45107;SDS011;30869;51.188;6.556;2022-11-15T13:12:53;5.03;;;1.80;;
45107;SDS011;30869;51.188;6.556;2022-11-15T13:15:44;2.70;;;1.60;;
45107;SDS011;30869;51.188;6.556;2022-11-15T13:21:01;7.72;;;1.88;;
45107;SDS011;30869;51.188;6.556;2022-11-15T13:23:51;3.55;;;1.70;;
45107;SDS011;30869;51.188;6.556;2022-11-15T13:26:20;3.25;;;1.55;;
45107;SDS011;30869;51.188;6.556;2022-11-15T13:28:47;5.63;;;2.25;;
45107;SDS011;30869;51.188;6.556;2022-11-15T13:31:35;4.63;;;1.20;;
45107;SDS011;30869;51.188;6.556;2022-11-15T13:34:30;2.92;;;1.25;;
45107;SDS011;30869;51.188;6.556;2022-11-15T13:37:01;4.30;;;1.20;;
45107;SDS011;30869;51.188;6.556;2022-11-15T13:42:03;6.30;;;1.20;;
45107;SDS011;30869;51.188;6.556;2022-11-15T13:44:30;2.08;;;0.93;;
45107;SDS011;30869;51.188;6.556;2022-11-15T13:47:04;3.42;;;1.00;;
45107;SDS011;30869;51.188;6.556;2022-11-15T13:49:40;2.30;;;1.40;;
45107;SDS011;30869;51.188;6.556;2022-11-15T13:52:07;4.78;;;1.50;;
45107;SDS011;30869;51.188;6.556;2022-11-15T13:59:36;6.03;;;1.40;;
45107;SDS011;30869;51.188;6.556;2022-11-15T14:02:14;5.75;;;1.27;;
45107;SDS011;30869;51.188;6.556;2022-11-15T14:04:47;5.47;;;1.38;;
45107;SDS011;30869;51.188;6.556;2022-11-15T14:07:19;2.42;;;1.40;;
45107;SDS011;30869;51.188;6.556;2022-11-15T14:09:47;2.55;;;1.40;;
45107;SDS011;30869;51.188;6.556;2022-11-15T14:12:30;4.28;;;1.45;;
45107;SDS011;30869;51.188;6.556;2022-11-15T14:14:56;9.95;;;1.50;;
45107;SDS011;30869;51.188;6.556;2022-11-15T14:19:54;3.45;;;1.20;;
45107;SDS011;30869;51.188;6.556;2022-11-15T14:22:21;6.80;;;1.40;;
45107;SDS011;30869;51.188;6.556;2022-11-15T14:25:05;9.20;;;1.45;;
45107;SDS011;30869;51.188;6.556;2022-11-15T14:27:36;4.55;;;1.40;;
45107;SDS011;30869;51.188;6.556;2022-11-15T14:30:03;2.58;;;1.33;;
45107;SDS011;30869;51.188;6.556;2022-11-15T14:32:30;2.42;;;1.50;;
45107;SDS011;30869;51.188;6.556;2022-11-15T14:35:09;10.32;;;1.70;;
45107;SDS011;30869;51.188;6.556;2022-11-15T14:37:40;13.27;;;1.95;;
45107;SDS011;30869;51.188;6.556;2022-11-15T14:40:06;6.43;;;1.70;;
45107;SDS011;30869;51.188;6.556;2022-11-15T14:42:34;3.03;;;1.45;;
45107;SDS011;30869;51.188;6.556;2022-11-15T14:45:00;6.72;;;2.05;;
45107;SDS011;30869;51.188;6.556;2022-11-15T14:47:26;3.40;;;1.83;;
45107;SDS011;30869;51.188;6.556;2022-11-15T14:49:52;7.63;;;1.92;;
45107;SDS011;30869;51.188;6.556;2022-11-15T14:54:53;9.70;;;2.72;;
45107;SDS011;30869;51.188;6.556;2022-11-15T14:57:19;9.73;;;2.85;;
45107;SDS011;30869;51.188;6.556;2022-11-15T14:59:45;5.28;;;2.20;;
45107;SDS011;30869;51.188;6.556;2022-11-15T15:02:21;3.67;;;1.85;;
45107;SDS011;30869;51.188;6.556;2022-11-15T15:04:49;5.80;;;2.47;;
45107;SDS011;30869;51.188;6.556;2022-11-15T15:07:16;8.90;;;2.60;;
45107;SDS011;30869;51.188;6.556;2022-11-15T15:09:43;3.70;;;2.15;;
45107;SDS011;30869;51.188;6.556;2022-11-15T15:14:41;5.43;;;2.55;;
45107;SDS011;30869;51.188;6.556;2022-11-15T15:17:07;12.77;;;2.80;;
45107;SDS011;30869;51.188;6.556;2022-11-15T15:19:33;4.32;;;2.60;;
45107;SDS011;30869;51.188;6.556;2022-11-15T15:21:59;7.50;;;2.80;;
45107;SDS011;30869;51.188;6.556;2022-11-15T15:24:25;5.65;;;3.15;;
45107;SDS011;30869;51.188;6.556;2022-11-15T15:26:51;5.63;;;2.47;;
45107;SDS011;30869;51.188;6.556;2022-11-15T15:29:17;4.43;;;1.80;;
45107;SDS011;30869;51.188;6.556;2022-11-15T15:31:42;8.45;;;2.80;;
45107;SDS011;30869;51.188;6.556;2022-11-15T15:34:08;2.03;;;1.83;;
45107;SDS011;30869;51.188;6.556;2022-11-15T15:36:34;3.72;;;2.20;;
45107;SDS011;30869;51.188;6.556;2022-11-15T15:39:00;2.88;;;1.50;;
45107;SDS011;30869;51.188;6.556;2022-11-15T15:41:25;2.63;;;2.17;;
45107;SDS011;30869;51.188;6.556;2022-11-15T15:43:51;3.20;;;2.40;;
45107;SDS011;30869;51.188;6.556;2022-11-15T15:46:18;3.20;;;2.20;;
45107;SDS011;30869;51.188;6.556;2022-11-15T15:48:45;4.20;;;1.98;;
45107;SDS011;30869;51.188;6.556;2022-11-15T15:51:11;4.15;;;2.40;;
45107;SDS011;30869;51.188;6.556;2022-11-15T15:53:37;9.35;;;2.58;;
45107;SDS011;30869;51.188;6.556;2022-11-15T15:56:03;2.00;;;1.77;;
45107;SDS011;30869;51.188;6.556;2022-11-15T15:58:29;4.28;;;2.42;;
45107;SDS011;30869;51.188;6.556;2022-11-15T16:00:56;6.32;;;3.25;;
45107;SDS011;30869;51.188;6.556;2022-11-15T16:03:22;6.05;;;2.88;;
45107;SDS011;30869;51.188;6.556;2022-11-15T16:05:49;9.20;;;3.05;;
45107;SDS011;30869;51.188;6.556;2022-11-15T16:08:19;4.75;;;3.40;;
45107;SDS011;30869;51.188;6.556;2022-11-15T16:10:46;10.07;;;3.10;;
45107;SDS011;30869;51.188;6.556;2022-11-15T16:13:12;8.35;;;2.72;;
45107;SDS011;30869;51.188;6.556;2022-11-15T16:15:38;4.00;;;2.22;;
45107;SDS011;30869;51.188;6.556;2022-11-15T16:18:04;3.60;;;2.38;;
45107;SDS011;30869;51.188;6.556;2022-11-15T16:20:37;10.23;;;2.60;;
45107;SDS011;30869;51.188;6.556;2022-11-15T16:23:05;4.03;;;2.53;;
45107;SDS011;30869;51.188;6.556;2022-11-15T16:25:36;9.77;;;3.20;;
45107;SDS011;30869;51.188;6.556;2022-11-15T16:28:30;5.93;;;2.60;;
45107;SDS011;30869;51.188;6.556;2022-11-15T16:31:01;7.93;;;3.10;;
45107;SDS011;30869;51.188;6.556;2022-11-15T16:33:33;8.25;;;2.63;;
45107;SDS011;30869;51.188;6.556;2022-11-15T16:35:58;3.72;;;2.05;;
45107;SDS011;30869;51.188;6.556;2022-11-15T16:38:24;2.10;;;1.90;;
45107;SDS011;30869;51.188;6.556;2022-11-15T16:40:50;5.70;;;2.22;;
45107;SDS011;30869;51.188;6.556;2022-11-15T16:43:16;8.43;;;2.25;;
45107;SDS011;30869;51.188;6.556;2022-11-15T16:45:42;7.60;;;1.75;;
45107;SDS011;30869;51.188;6.556;2022-11-15T16:48:24;3.88;;;1.65;;
45107;SDS011;30869;51.188;6.556;2022-11-15T16:50:55;2.92;;;2.15;;
45107;SDS011;30869;51.188;6.556;2022-11-15T16:53:22;4.85;;;1.70;;